sensor_id;sensor_type;location;lat;lon;timestamp;P1;durP1;ratioP1;P2;durP2;ratioP2
20036;SDS011;10179;42.640;23.312;2023-01-04T00:01:04;12.00;;;6.50;;
20036;SDS011;10179;42.640;23.312;2023-01-04T00:03:30;10.90;;;6.20;;
20036;SDS011;10179;42.640;23.312;2023-01-04T00:05:57;10.02;;;6.13;;
20036;SDS011;10179;42.640;23.312;2023-01-04T00:08:23;10.20;;;5.75;;
20036;SDS011;10179;42.640;23.312;2023-01-04T00:10:48;9.85;;;5.93;;
20036;SDS011;10179;42.640;23.312;2023-01-04T00:13:14;9.77;;;5.80;;
20036;SDS011;10179;42.640;23.312;2023-01-04T00:15:39;10.68;;;5.53;;
20036;SDS011;10179;42.640;23.312;2023-01-04T00:18:05;9.75;;;5.65;;
20036;SDS011;10179;42.640;23.312;2023-01-04T00:20:30;9.95;;;5.57;;
20036;SDS011;10179;42.640;23.312;2023-01-04T00:22:56;10.32;;;5.70;;
20036;SDS011;10179;42.640;23.312;2023-01-04T00:25:22;11.55;;;5.80;;
20036;SDS011;10179;42.640;23.312;2023-01-04T00:27:48;10.00;;;6.05;;
20036;SDS011;10179;42.640;23.312;2023-01-04T00:30:14;13.35;;;5.90;;
20036;SDS011;10179;42.640;23.312;2023-01-04T00:32:40;10.40;;;5.85;;
20036;SDS011;10179;42.640;23.312;2023-01-04T00:35:05;9.20;;;5.32;;
20036;SDS011;10179;42.640;23.312;2023-01-04T00:37:31;8.40;;;5.55;;
20036;SDS011;10179;42.640;23.312;2023-01-04T00:39:56;9.23;;;6.05;;
20036;SDS011;10179;42.640;23.312;2023-01-04T00:42:21;8.13;;;5.28;;
20036;SDS011;10179;42.640;23.312;2023-01-04T00:44:47;9.80;;;5.65;;
20036;SDS011;10179;42.640;23.312;2023-01-04T00:47:12;9.88;;;5.75;;
20036;SDS011;10179;42.640;23.312;2023-01-04T00:49:37;12.48;;;5.85;;
20036;SDS011;10179;42.640;23.312;2023-01-04T00:52:03;13.98;;;6.07;;
20036;SDS011;10179;42.640;23.312;2023-01-04T00:54:28;11.40;;;6.25;;
20036;SDS011;10179;42.640;23.312;2023-01-04T00:56:54;11.25;;;6.45;;
20036;SDS011;10179;42.640;23.312;2023-01-04T00:59:19;16.50;;;6.75;;
20036;SDS011;10179;42.640;23.312;2023-01-04T01:01:46;11.73;;;6.57;;
20036;SDS011;10179;42.640;23.312;2023-01-04T01:04:13;9.70;;;6.35;;
20036;SDS011;10179;42.640;23.312;2023-01-04T01:06:39;12.25;;;5.82;;
20036;SDS011;10179;42.640;23.312;2023-01-04T01:09:05;14.68;;;6.85;;
20036;SDS011;10179;42.640;23.312;2023-01-04T01:11:31;11.32;;;6.80;;
20036;SDS011;10179;42.640;23.312;2023-01-04T01:13:57;12.43;;;6.88;;
20036;SDS011;10179;42.640;23.312;2023-01-04T01:16:23;10.60;;;6.03;;
20036;SDS011;10179;42.640;23.312;2023-01-04T01:18:50;12.98;;;7.05;;
20036;SDS011;10179;42.640;23.312;2023-01-04T01:21:18;10.13;;;5.88;;
20036;SDS011;10179;42.640;23.312;2023-01-04T01:23:45;12.70;;;6.95;;
20036;SDS011;10179;42.640;23.312;2023-01-04T01:26:12;9.52;;;6.40;;
20036;SDS011;10179;42.640;23.312;2023-01-04T01:28:39;10.90;;;6.57;;
20036;SDS011;10179;42.640;23.312;2023-01-04T01:31:09;11.50;;;6.85;;
20036;SDS011;10179;42.640;23.312;2023-01-04T01:33:37;10.52;;;6.00;;
20036;SDS011;10179;42.640;23.312;2023-01-04T01:36:04;12.88;;;6.53;;
20036;SDS011;10179;42.640;23.312;2023-01-04T01:38:30;14.15;;;6.57;;
20036;SDS011;10179;42.640;23.312;2023-01-04T01:40:56;14.60;;;7.13;;
20036;SDS011;10179;42.640;23.312;2023-01-04T01:43:22;11.38;;;6.90;;
20036;SDS011;10179;42.640;23.312;2023-01-04T01:46:08;13.68;;;6.57;;
20036;SDS011;10179;42.640;23.312;2023-01-04T01:48:34;13.00;;;7.05;;
20036;SDS011;10179;42.640;23.312;2023-01-04T01:51:00;14.85;;;7.13;;
20036;SDS011;10179;42.640;23.312;2023-01-04T01:53:29;11.90;;;5.93;;
20036;SDS011;10179;42.640;23.312;2023-01-04T01:55:57;14.32;;;7.65;;
20036;SDS011;10179;42.640;23.312;2023-01-04T01:58:31;12.23;;;6.90;;
20036;SDS011;10179;42.640;23.312;2023-01-04T02:01:08;12.45;;;7.13;;
20036;SDS011;10179;42.640;23.312;2023-01-04T02:03:39;12.38;;;7.43;;
20036;SDS011;10179;42.640;23.312;2023-01-04T02:06:07;16.25;;;7.78;;
20036;SDS011;10179;42.640;23.312;2023-01-04T02:08:36;13.23;;;6.70;;
20036;SDS011;10179;42.640;23.312;2023-01-04T02:11:03;15.60;;;7.63;;
20036;SDS011;10179;42.640;23.312;2023-01-04T02:13:29;10.68;;;6.75;;
20036;SDS011;10179;42.640;23.312;2023-01-04T02:30:08;13.30;;;7.05;;
20036;SDS011;10179;42.640;23.312;2023-01-04T02:38:27;12.93;;;6.75;;
20036;SDS011;10179;42.640;23.312;2023-01-04T02:44:04;11.57;;;6.60;;
20036;SDS011;10179;42.640;23.312;2023-01-04T02:46:58;13.70;;;7.03;;
20036;SDS011;10179;42.640;23.312;2023-01-04T02:49:36;14.57;;;7.82;;
20036;SDS011;10179;42.640;23.312;2023-01-04T02:52:20;15.00;;;8.02;;
20036;SDS011;10179;42.640;23.312;2023-01-04T02:54:47;14.10;;;7.78;;
20036;SDS011;10179;42.640;23.312;2023-01-04T02:57:21;14.98;;;7.00;;
20036;SDS011;10179;42.640;23.312;2023-01-04T03:09:07;14.00;;;8.77;;
20036;SDS011;10179;42.640;23.312;2023-01-04T03:12:00;18.73;;;8.70;;
20036;SDS011;10179;42.640;23.312;2023-01-04T03:15:07;20.92;;;8.63;;
20036;SDS011;10179;42.640;23.312;2023-01-04T03:17:49;17.77;;;8.68;;
20036;SDS011;10179;42.640;23.312;2023-01-04T03:20:22;22.50;;;9.63;;
20036;SDS011;10179;42.640;23.312;2023-01-04T03:22:54;17.45;;;9.32;;
20036;SDS011;10179;42.640;23.312;2023-01-04T03:25:54;20.10;;;9.23;;
20036;SDS011;10179;42.640;23.312;2023-01-04T03:28:42;18.10;;;9.35;;
20036;SDS011;10179;42.640;23.312;2023-01-04T03:31:31;18.58;;;9.23;;
20036;SDS011;10179;42.640;23.312;2023-01-04T03:34:15;19.92;;;9.68;;
20036;SDS011;10179;42.640;23.312;2023-01-04T03:39:55;18.50;;;9.57;;
20036;SDS011;10179;42.640;23.312;2023-01-04T03:42:57;15.88;;;9.27;;
20036;SDS011;10179;42.640;23.312;2023-01-04T03:45:49;19.60;;;10.75;;
20036;SDS011;10179;42.640;23.312;2023-01-04T03:48:40;22.10;;;10.95;;
20036;SDS011;10179;42.640;23.312;2023-01-04T03:51:21;19.08;;;9.65;;
20036;SDS011;10179;42.640;23.312;2023-01-04T03:56:21;17.73;;;10.10;;
20036;SDS011;10179;42.640;23.312;2023-01-04T03:58:49;21.95;;;11.05;;
20036;SDS011;10179;42.640;23.312;2023-01-04T04:01:18;19.98;;;10.32;;
20036;SDS011;10179;42.640;23.312;2023-01-04T04:03:44;22.23;;;10.68;;
20036;SDS011;10179;42.640;23.312;2023-01-04T04:06:28;17.58;;;9.07;;
20036;SDS011;10179;42.640;23.312;2023-01-04T04:09:12;15.23;;;8.43;;
20036;SDS011;10179;42.640;23.312;2023-01-04T04:11:38;13.60;;;8.35;;
20036;SDS011;10179;42.640;23.312;2023-01-04T04:14:03;15.38;;;8.15;;
20036;SDS011;10179;42.640;23.312;2023-01-04T04:16:29;18.02;;;8.82;;
20036;SDS011;10179;42.640;23.312;2023-01-04T04:18:54;21.00;;;9.05;;
20036;SDS011;10179;42.640;23.312;2023-01-04T04:21:20;19.35;;;9.25;;
20036;SDS011;10179;42.640;23.312;2023-01-04T04:23:45;17.45;;;9.40;;
20036;SDS011;10179;42.640;23.312;2023-01-04T04:26:11;20.80;;;10.00;;
20036;SDS011;10179;42.640;23.312;2023-01-04T04:28:36;20.50;;;9.63;;
20036;SDS011;10179;42.640;23.312;2023-01-04T04:31:03;20.42;;;9.63;;
20036;SDS011;10179;42.640;23.312;2023-01-04T04:33:28;18.50;;;9.65;;
20036;SDS011;10179;42.640;23.312;2023-01-04T04:35:54;22.58;;;9.73;;
20036;SDS011;10179;42.640;23.312;2023-01-04T04:38:20;15.75;;;9.38;;
20036;SDS011;10179;42.640;23.312;2023-01-04T04:40:46;18.80;;;9.73;;
20036;SDS011;10179;42.640;23.312;2023-01-04T04:43:31;15.90;;;8.90;;
20036;SDS011;10179;42.640;23.312;2023-01-04T04:45:57;20.30;;;9.55;;
20036;SDS011;10179;42.640;23.312;2023-01-04T04:48:22;20.13;;;9.68;;
20036;SDS011;10179;42.640;23.312;2023-01-04T04:50:47;18.65;;;9.95;;
20036;SDS011;10179;42.640;23.312;2023-01-04T04:53:13;18.42;;;10.15;;
20036;SDS011;10179;42.640;23.312;2023-01-04T04:55:38;23.00;;;10.20;;
20036;SDS011;10179;42.640;23.312;2023-01-04T04:58:04;23.83;;;11.80;;
20036;SDS011;10179;42.640;23.312;2023-01-04T05:00:29;19.25;;;10.68;;
20036;SDS011;10179;42.640;23.312;2023-01-04T05:02:58;23.60;;;10.65;;
20036;SDS011;10179;42.640;23.312;2023-01-04T05:05:24;17.92;;;10.18;;
20036;SDS011;10179;42.640;23.312;2023-01-04T05:07:49;18.65;;;10.35;;
20036;SDS011;10179;42.640;23.312;2023-01-04T05:10:15;18.77;;;10.30;;
20036;SDS011;10179;42.640;23.312;2023-01-04T05:12:40;19.83;;;11.25;;
20036;SDS011;10179;42.640;23.312;2023-01-04T05:15:27;24.92;;;11.48;;
20036;SDS011;10179;42.640;23.312;2023-01-04T05:18:00;20.05;;;11.23;;
20036;SDS011;10179;42.640;23.312;2023-01-04T05:20:26;23.20;;;11.32;;
20036;SDS011;10179;42.640;23.312;2023-01-04T05:22:51;25.20;;;10.95;;
20036;SDS011;10179;42.640;23.312;2023-01-04T05:25:17;23.95;;;11.32;;
20036;SDS011;10179;42.640;23.312;2023-01-04T05:27:43;18.60;;;10.38;;
20036;SDS011;10179;42.640;23.312;2023-01-04T05:30:10;21.15;;;11.65;;
20036;SDS011;10179;42.640;23.312;2023-01-04T05:32:56;23.13;;;11.10;;
20036;SDS011;10179;42.640;23.312;2023-01-04T05:35:22;18.02;;;9.93;;
20036;SDS011;10179;42.640;23.312;2023-01-04T05:37:47;19.48;;;10.63;;
20036;SDS011;10179;42.640;23.312;2023-01-04T05:40:13;18.95;;;10.18;;
20036;SDS011;10179;42.640;23.312;2023-01-04T05:42:38;24.60;;;11.00;;
20036;SDS011;10179;42.640;23.312;2023-01-04T05:45:04;19.52;;;11.13;;
20036;SDS011;10179;42.640;23.312;2023-01-04T05:47:31;17.25;;;9.43;;
20036;SDS011;10179;42.640;23.312;2023-01-04T05:49:57;15.95;;;8.95;;
20036;SDS011;10179;42.640;23.312;2023-01-04T05:52:22;13.73;;;8.13;;
20036;SDS011;10179;42.640;23.312;2023-01-04T05:54:48;16.55;;;9.00;;
20036;SDS011;10179;42.640;23.312;2023-01-04T05:57:13;13.60;;;7.63;;
20036;SDS011;10179;42.640;23.312;2023-01-04T05:59:39;14.98;;;8.45;;
20036;SDS011;10179;42.640;23.312;2023-01-04T06:02:05;10.98;;;7.18;;
20036;SDS011;10179;42.640;23.312;2023-01-04T06:04:31;12.15;;;6.88;;
20036;SDS011;10179;42.640;23.312;2023-01-04T06:06:56;13.73;;;8.00;;
20036;SDS011;10179;42.640;23.312;2023-01-04T06:09:22;10.88;;;6.20;;
20036;SDS011;10179;42.640;23.312;2023-01-04T06:11:48;16.35;;;6.78;;
20036;SDS011;10179;42.640;23.312;2023-01-04T06:14:14;11.90;;;6.05;;
20036;SDS011;10179;42.640;23.312;2023-01-04T06:16:40;11.80;;;6.65;;
20036;SDS011;10179;42.640;23.312;2023-01-04T06:19:05;13.80;;;6.78;;
20036;SDS011;10179;42.640;23.312;2023-01-04T06:21:30;13.85;;;6.35;;
20036;SDS011;10179;42.640;23.312;2023-01-04T06:23:56;12.52;;;6.60;;
20036;SDS011;10179;42.640;23.312;2023-01-04T06:26:21;13.25;;;7.20;;
20036;SDS011;10179;42.640;23.312;2023-01-04T06:28:46;12.43;;;6.07;;
20036;SDS011;10179;42.640;23.312;2023-01-04T06:31:12;11.60;;;6.15;;
20036;SDS011;10179;42.640;23.312;2023-01-04T06:33:38;14.50;;;6.00;;
20036;SDS011;10179;42.640;23.312;2023-01-04T06:36:04;11.10;;;5.68;;
20036;SDS011;10179;42.640;23.312;2023-01-04T06:38:31;11.70;;;5.53;;
20036;SDS011;10179;42.640;23.312;2023-01-04T06:40:57;12.77;;;5.95;;
20036;SDS011;10179;42.640;23.312;2023-01-04T06:43:22;9.98;;;5.22;;
20036;SDS011;10179;42.640;23.312;2023-01-04T06:45:48;9.68;;;5.28;;
20036;SDS011;10179;42.640;23.312;2023-01-04T06:48:14;10.45;;;5.82;;
20036;SDS011;10179;42.640;23.312;2023-01-04T06:50:40;9.93;;;5.55;;
20036;SDS011;10179;42.640;23.312;2023-01-04T06:53:05;11.80;;;6.25;;
20036;SDS011;10179;42.640;23.312;2023-01-04T06:55:31;10.75;;;6.00;;
20036;SDS011;10179;42.640;23.312;2023-01-04T06:57:56;9.40;;;5.55;;
20036;SDS011;10179;42.640;23.312;2023-01-04T07:00:22;10.73;;;6.00;;
20036;SDS011;10179;42.640;23.312;2023-01-04T07:02:49;12.68;;;5.72;;
20036;SDS011;10179;42.640;23.312;2023-01-04T07:05:15;14.30;;;6.80;;
20036;SDS011;10179;42.640;23.312;2023-01-04T07:07:41;14.93;;;6.78;;
20036;SDS011;10179;42.640;23.312;2023-01-04T07:10:07;12.85;;;6.45;;
20036;SDS011;10179;42.640;23.312;2023-01-04T07:12:32;13.70;;;6.55;;
20036;SDS011;10179;42.640;23.312;2023-01-04T07:14:58;11.55;;;6.28;;
20036;SDS011;10179;42.640;23.312;2023-01-04T07:17:23;13.55;;;6.55;;
20036;SDS011;10179;42.640;23.312;2023-01-04T07:19:49;17.08;;;6.55;;
20036;SDS011;10179;42.640;23.312;2023-01-04T07:22:14;11.45;;;6.80;;
20036;SDS011;10179;42.640;23.312;2023-01-04T07:24:40;10.50;;;5.55;;
20036;SDS011;10179;42.640;23.312;2023-01-04T07:27:08;14.48;;;5.97;;
20036;SDS011;10179;42.640;23.312;2023-01-04T07:29:34;12.45;;;6.10;;
20036;SDS011;10179;42.640;23.312;2023-01-04T07:31:59;13.02;;;6.80;;
20036;SDS011;10179;42.640;23.312;2023-01-04T07:34:25;14.48;;;7.15;;
20036;SDS011;10179;42.640;23.312;2023-01-04T07:36:50;14.05;;;7.97;;
20036;SDS011;10179;42.640;23.312;2023-01-04T07:39:16;16.77;;;7.28;;
20036;SDS011;10179;42.640;23.312;2023-01-04T07:41:43;14.27;;;7.60;;
20036;SDS011;10179;42.640;23.312;2023-01-04T07:44:09;11.95;;;7.40;;
20036;SDS011;10179;42.640;23.312;2023-01-04T07:46:36;16.95;;;6.90;;
20036;SDS011;10179;42.640;23.312;2023-01-04T07:49:02;14.57;;;7.80;;
20036;SDS011;10179;42.640;23.312;2023-01-04T07:51:28;17.92;;;7.90;;
20036;SDS011;10179;42.640;23.312;2023-01-04T07:53:55;20.23;;;7.13;;
20036;SDS011;10179;42.640;23.312;2023-01-04T07:56:20;14.27;;;8.27;;
20036;SDS011;10179;42.640;23.312;2023-01-04T07:58:45;18.50;;;8.30;;
20036;SDS011;10179;42.640;23.312;2023-01-04T08:01:12;18.13;;;8.07;;
20036;SDS011;10179;42.640;23.312;2023-01-04T08:03:43;20.33;;;8.32;;
20036;SDS011;10179;42.640;23.312;2023-01-04T08:06:10;15.88;;;8.95;;
20036;SDS011;10179;42.640;23.312;2023-01-04T08:08:37;17.55;;;8.02;;
20036;SDS011;10179;42.640;23.312;2023-01-04T08:11:06;17.38;;;7.75;;
20036;SDS011;10179;42.640;23.312;2023-01-04T08:13:34;13.88;;;6.32;;
20036;SDS011;10179;42.640;23.312;2023-01-04T08:16:00;13.73;;;7.20;;
20036;SDS011;10179;42.640;23.312;2023-01-04T08:18:25;19.38;;;7.93;;
20036;SDS011;10179;42.640;23.312;2023-01-04T08:21:00;19.85;;;7.50;;
20036;SDS011;10179;42.640;23.312;2023-01-04T08:23:29;20.92;;;9.18;;
20036;SDS011;10179;42.640;23.312;2023-01-04T08:25:55;13.93;;;7.30;;
20036;SDS011;10179;42.640;23.312;2023-01-04T08:28:25;13.07;;;7.32;;
20036;SDS011;10179;42.640;23.312;2023-01-04T08:30:50;14.80;;;7.15;;
20036;SDS011;10179;42.640;23.312;2023-01-04T08:33:15;25.00;;;8.93;;
20036;SDS011;10179;42.640;23.312;2023-01-04T08:35:41;15.50;;;7.90;;
20036;SDS011;10179;42.640;23.312;2023-01-04T08:38:06;25.20;;;9.63;;
20036;SDS011;10179;42.640;23.312;2023-01-04T08:40:32;17.25;;;8.65;;
20036;SDS011;10179;42.640;23.312;2023-01-04T08:42:57;20.60;;;8.50;;
20036;SDS011;10179;42.640;23.312;2023-01-04T08:45:22;20.25;;;9.43;;
20036;SDS011;10179;42.640;23.312;2023-01-04T08:47:48;16.75;;;8.60;;
20036;SDS011;10179;42.640;23.312;2023-01-04T08:50:13;21.83;;;9.68;;
20036;SDS011;10179;42.640;23.312;2023-01-04T08:52:41;16.35;;;8.70;;
20036;SDS011;10179;42.640;23.312;2023-01-04T08:55:06;15.57;;;9.15;;
20036;SDS011;10179;42.640;23.312;2023-01-04T08:57:33;17.45;;;9.23;;
20036;SDS011;10179;42.640;23.312;2023-01-04T08:59:59;17.42;;;8.88;;
20036;SDS011;10179;42.640;23.312;2023-01-04T09:02:25;19.55;;;9.63;;
20036;SDS011;10179;42.640;23.312;2023-01-04T09:04:52;19.48;;;9.20;;
20036;SDS011;10179;42.640;23.312;2023-01-04T09:07:23;15.70;;;9.15;;
20036;SDS011;10179;42.640;23.312;2023-01-04T09:09:49;18.67;;;9.20;;
20036;SDS011;10179;42.640;23.312;2023-01-04T09:12:15;15.70;;;9.45;;
20036;SDS011;10179;42.640;23.312;2023-01-04T09:14:40;22.13;;;10.27;;
20036;SDS011;10179;42.640;23.312;2023-01-04T09:17:06;20.60;;;9.15;;
20036;SDS011;10179;42.640;23.312;2023-01-04T09:19:32;16.15;;;8.90;;
20036;SDS011;10179;42.640;23.312;2023-01-04T09:21:57;17.42;;;9.38;;
20036;SDS011;10179;42.640;23.312;2023-01-04T09:24:22;19.88;;;8.57;;
20036;SDS011;10179;42.640;23.312;2023-01-04T09:26:48;18.60;;;9.25;;
20036;SDS011;10179;42.640;23.312;2023-01-04T09:29:13;17.83;;;8.93;;
20036;SDS011;10179;42.640;23.312;2023-01-04T09:31:39;19.15;;;9.82;;
20036;SDS011;10179;42.640;23.312;2023-01-04T09:34:04;18.80;;;8.40;;
20036;SDS011;10179;42.640;23.312;2023-01-04T09:36:30;18.98;;;8.25;;
20036;SDS011;10179;42.640;23.312;2023-01-04T09:38:56;17.05;;;9.13;;
20036;SDS011;10179;42.640;23.312;2023-01-04T09:41:26;21.27;;;10.43;;
20036;SDS011;10179;42.640;23.312;2023-01-04T09:43:52;18.52;;;9.07;;
20036;SDS011;10179;42.640;23.312;2023-01-04T09:46:23;17.50;;;9.32;;
20036;SDS011;10179;42.640;23.312;2023-01-04T09:48:50;18.42;;;9.52;;
20036;SDS011;10179;42.640;23.312;2023-01-04T09:51:20;21.05;;;8.50;;
20036;SDS011;10179;42.640;23.312;2023-01-04T09:54:03;18.58;;;10.02;;
20036;SDS011;10179;42.640;23.312;2023-01-04T09:56:36;19.42;;;9.23;;
20036;SDS011;10179;42.640;23.312;2023-01-04T09:59:04;19.05;;;9.52;;
20036;SDS011;10179;42.640;23.312;2023-01-04T10:01:43;18.92;;;8.73;;
20036;SDS011;10179;42.640;23.312;2023-01-04T10:04:54;20.00;;;9.50;;
20036;SDS011;10179;42.640;23.312;2023-01-04T10:07:09;17.80;;;8.95;;
20036;SDS011;10179;42.640;23.312;2023-01-04T10:09:58;43.45;;;11.45;;
20036;SDS011;10179;42.640;23.312;2023-01-04T10:21:14;14.80;;;7.43;;
20036;SDS011;10179;42.640;23.312;2023-01-04T10:23:53;17.70;;;8.60;;
20036;SDS011;10179;42.640;23.312;2023-01-04T10:34:56;15.18;;;7.65;;
20036;SDS011;10179;42.640;23.312;2023-01-04T10:37:23;16.17;;;7.80;;
20036;SDS011;10179;42.640;23.312;2023-01-04T10:39:53;15.20;;;7.22;;
20036;SDS011;10179;42.640;23.312;2023-01-04T10:45:04;13.65;;;6.95;;
20036;SDS011;10179;42.640;23.312;2023-01-04T10:50:19;12.57;;;7.18;;
20036;SDS011;10179;42.640;23.312;2023-01-04T10:53:26;15.57;;;7.88;;
20036;SDS011;10179;42.640;23.312;2023-01-04T11:01:08;17.00;;;8.45;;
20036;SDS011;10179;42.640;23.312;2023-01-04T11:03:43;17.42;;;9.23;;
20036;SDS011;10179;42.640;23.312;2023-01-04T11:06:22;19.45;;;9.05;;
20036;SDS011;10179;42.640;23.312;2023-01-04T11:11:33;19.77;;;9.48;;
20036;SDS011;10179;42.640;23.312;2023-01-04T11:14:04;22.52;;;9.57;;
20036;SDS011;10179;42.640;23.312;2023-01-04T11:16:29;17.95;;;9.25;;
20036;SDS011;10179;42.640;23.312;2023-01-04T11:18:56;22.10;;;10.80;;
20036;SDS011;10179;42.640;23.312;2023-01-04T11:21:24;15.90;;;9.80;;
20036;SDS011;10179;42.640;23.312;2023-01-04T11:23:55;17.60;;;8.90;;
20036;SDS011;10179;42.640;23.312;2023-01-04T11:26:25;13.10;;;7.72;;
20036;SDS011;10179;42.640;23.312;2023-01-04T11:29:02;19.02;;;8.88;;
20036;SDS011;10179;42.640;23.312;2023-01-04T11:34:17;19.33;;;8.90;;
20036;SDS011;10179;42.640;23.312;2023-01-04T11:36:43;19.02;;;10.13;;
20036;SDS011;10179;42.640;23.312;2023-01-04T11:39:31;16.05;;;8.27;;
20036;SDS011;10179;42.640;23.312;2023-01-04T11:41:56;15.45;;;8.23;;
20036;SDS011;10179;42.640;23.312;2023-01-04T11:44:24;12.20;;;7.35;;
20036;SDS011;10179;42.640;23.312;2023-01-04T11:47:32;14.38;;;7.53;;
20036;SDS011;10179;42.640;23.312;2023-01-04T11:49:45;16.20;;;7.30;;
20036;SDS011;10179;42.640;23.312;2023-01-04T11:55:18;12.82;;;7.13;;
20036;SDS011;10179;42.640;23.312;2023-01-04T11:58:04;13.80;;;7.22;;
20036;SDS011;10179;42.640;23.312;2023-01-04T12:00:30;13.48;;;6.68;;
20036;SDS011;10179;42.640;23.312;2023-01-04T12:03:12;13.10;;;6.93;;
20036;SDS011;10179;42.640;23.312;2023-01-04T12:05:39;10.65;;;6.30;;
20036;SDS011;10179;42.640;23.312;2023-01-04T12:08:05;9.95;;;5.60;;
20036;SDS011;10179;42.640;23.312;2023-01-04T12:10:31;11.95;;;6.38;;
20036;SDS011;10179;42.640;23.312;2023-01-04T12:12:58;10.80;;;6.22;;
20036;SDS011;10179;42.640;23.312;2023-01-04T12:15:37;12.77;;;6.43;;
20036;SDS011;10179;42.640;23.312;2023-01-04T12:18:12;14.05;;;6.25;;
20036;SDS011;10179;42.640;23.312;2023-01-04T12:20:43;12.38;;;6.32;;
20036;SDS011;10179;42.640;23.312;2023-01-04T12:23:10;15.48;;;6.90;;
20036;SDS011;10179;42.640;23.312;2023-01-04T12:25:40;14.65;;;7.13;;
20036;SDS011;10179;42.640;23.312;2023-01-04T12:39:01;14.95;;;6.03;;
20036;SDS011;10179;42.640;23.312;2023-01-04T12:47:01;10.68;;;6.07;;
20036;SDS011;10179;42.640;23.312;2023-01-04T12:54:49;13.95;;;7.32;;
20036;SDS011;10179;42.640;23.312;2023-01-04T12:59:52;9.25;;;6.13;;
20036;SDS011;10179;42.640;23.312;2023-01-04T13:04:57;15.68;;;7.28;;
20036;SDS011;10179;42.640;23.312;2023-01-04T13:07:28;13.80;;;6.80;;
20036;SDS011;10179;42.640;23.312;2023-01-04T13:09:57;13.18;;;7.38;;
20036;SDS011;10179;42.640;23.312;2023-01-04T13:15:20;19.45;;;8.57;;
20036;SDS011;10179;42.640;23.312;2023-01-04T13:17:55;19.77;;;8.38;;
20036;SDS011;10179;42.640;23.312;2023-01-04T13:20:22;21.88;;;9.05;;
20036;SDS011;10179;42.640;23.312;2023-01-04T13:22:50;15.60;;;7.68;;
20036;SDS011;10179;42.640;23.312;2023-01-04T13:25:18;15.60;;;8.00;;
20036;SDS011;10179;42.640;23.312;2023-01-04T13:28:01;14.90;;;7.20;;
20036;SDS011;10179;42.640;23.312;2023-01-04T13:30:33;15.52;;;7.30;;
20036;SDS011;10179;42.640;23.312;2023-01-04T13:33:07;15.73;;;7.50;;
20036;SDS011;10179;42.640;23.312;2023-01-04T13:35:38;15.35;;;7.82;;
20036;SDS011;10179;42.640;23.312;2023-01-04T13:38:03;15.18;;;8.07;;
20036;SDS011;10179;42.640;23.312;2023-01-04T13:40:36;14.30;;;7.80;;
20036;SDS011;10179;42.640;23.312;2023-01-04T13:48:31;18.98;;;8.57;;
20036;SDS011;10179;42.640;23.312;2023-01-04T13:51:02;13.45;;;7.90;;
20036;SDS011;10179;42.640;23.312;2023-01-04T13:53:54;15.40;;;8.23;;
20036;SDS011;10179;42.640;23.312;2023-01-04T13:56:23;16.05;;;7.43;;
20036;SDS011;10179;42.640;23.312;2023-01-04T13:58:50;14.55;;;7.80;;
20036;SDS011;10179;42.640;23.312;2023-01-04T14:01:26;21.10;;;8.38;;
20036;SDS011;10179;42.640;23.312;2023-01-04T14:04:05;17.60;;;8.95;;
20036;SDS011;10179;42.640;23.312;2023-01-04T14:06:41;18.20;;;9.18;;
20036;SDS011;10179;42.640;23.312;2023-01-04T14:11:41;18.38;;;9.73;;
20036;SDS011;10179;42.640;23.312;2023-01-04T14:16:51;20.30;;;9.80;;
20036;SDS011;10179;42.640;23.312;2023-01-04T14:19:50;18.33;;;9.48;;
20036;SDS011;10179;42.640;23.312;2023-01-04T14:24:48;19.92;;;8.95;;
20036;SDS011;10179;42.640;23.312;2023-01-04T14:29:57;24.58;;;9.45;;
20036;SDS011;10179;42.640;23.312;2023-01-04T14:32:23;17.77;;;8.90;;
20036;SDS011;10179;42.640;23.312;2023-01-04T14:34:49;19.55;;;9.52;;
20036;SDS011;10179;42.640;23.312;2023-01-04T14:37:14;19.02;;;9.68;;
20036;SDS011;10179;42.640;23.312;2023-01-04T14:39:40;20.58;;;9.68;;
20036;SDS011;10179;42.640;23.312;2023-01-04T14:42:20;18.33;;;9.57;;
20036;SDS011;10179;42.640;23.312;2023-01-04T14:44:48;17.08;;;9.07;;
20036;SDS011;10179;42.640;23.312;2023-01-04T14:47:14;18.95;;;8.80;;
20036;SDS011;10179;42.640;23.312;2023-01-04T14:49:39;23.75;;;9.90;;
20036;SDS011;10179;42.640;23.312;2023-01-04T14:52:09;21.35;;;10.98;;
20036;SDS011;10179;42.640;23.312;2023-01-04T14:54:55;19.20;;;9.10;;
20036;SDS011;10179;42.640;23.312;2023-01-04T14:57:21;20.48;;;9.25;;
20036;SDS011;10179;42.640;23.312;2023-01-04T14:59:46;22.83;;;9.02;;
20036;SDS011;10179;42.640;23.312;2023-01-04T15:02:12;20.13;;;10.25;;
20036;SDS011;10179;42.640;23.312;2023-01-04T15:04:38;22.52;;;10.52;;
20036;SDS011;10179;42.640;23.312;2023-01-04T15:07:03;19.85;;;10.02;;
20036;SDS011;10179;42.640;23.312;2023-01-04T15:09:29;21.02;;;9.77;;
20036;SDS011;10179;42.640;23.312;2023-01-04T15:11:54;24.42;;;10.82;;
20036;SDS011;10179;42.640;23.312;2023-01-04T15:14:20;21.55;;;10.25;;
20036;SDS011;10179;42.640;23.312;2023-01-04T15:16:45;19.42;;;9.80;;
20036;SDS011;10179;42.640;23.312;2023-01-04T15:19:11;23.40;;;10.93;;
20036;SDS011;10179;42.640;23.312;2023-01-04T15:21:37;19.67;;;10.73;;
20036;SDS011;10179;42.640;23.312;2023-01-04T15:24:04;19.08;;;9.73;;
20036;SDS011;10179;42.640;23.312;2023-01-04T15:26:29;19.90;;;10.73;;
20036;SDS011;10179;42.640;23.312;2023-01-04T15:28:55;21.30;;;9.98;;
20036;SDS011;10179;42.640;23.312;2023-01-04T15:31:20;19.85;;;9.95;;
20036;SDS011;10179;42.640;23.312;2023-01-04T15:33:46;23.75;;;10.50;;
20036;SDS011;10179;42.640;23.312;2023-01-04T15:36:12;26.73;;;11.20;;
20036;SDS011;10179;42.640;23.312;2023-01-04T15:38:39;27.25;;;10.40;;
20036;SDS011;10179;42.640;23.312;2023-01-04T15:41:06;24.73;;;10.23;;
20036;SDS011;10179;42.640;23.312;2023-01-04T15:43:34;25.70;;;11.43;;
20036;SDS011;10179;42.640;23.312;2023-01-04T15:46:01;22.88;;;10.48;;
20036;SDS011;10179;42.640;23.312;2023-01-04T15:48:31;22.20;;;10.70;;
20036;SDS011;10179;42.640;23.312;2023-01-04T15:51:00;19.90;;;10.70;;
20036;SDS011;10179;42.640;23.312;2023-01-04T15:53:27;22.23;;;11.07;;
20036;SDS011;10179;42.640;23.312;2023-01-04T15:55:52;25.25;;;10.70;;
20036;SDS011;10179;42.640;23.312;2023-01-04T15:58:18;23.55;;;11.15;;
20036;SDS011;10179;42.640;23.312;2023-01-04T16:00:44;22.73;;;11.00;;
20036;SDS011;10179;42.640;23.312;2023-01-04T16:03:10;26.15;;;11.05;;
20036;SDS011;10179;42.640;23.312;2023-01-04T16:05:35;23.20;;;11.30;;
20036;SDS011;10179;42.640;23.312;2023-01-04T16:08:01;28.48;;;14.27;;
20036;SDS011;10179;42.640;23.312;2023-01-04T16:10:27;31.90;;;14.50;;
20036;SDS011;10179;42.640;23.312;2023-01-04T16:12:52;22.23;;;12.35;;
20036;SDS011;10179;42.640;23.312;2023-01-04T16:15:18;22.00;;;10.50;;
20036;SDS011;10179;42.640;23.312;2023-01-04T16:17:45;22.88;;;10.90;;
20036;SDS011;10179;42.640;23.312;2023-01-04T16:20:12;21.88;;;10.65;;
20036;SDS011;10179;42.640;23.312;2023-01-04T16:22:38;17.92;;;9.63;;
20036;SDS011;10179;42.640;23.312;2023-01-04T16:25:05;22.65;;;10.07;;
20036;SDS011;10179;42.640;23.312;2023-01-04T16:27:31;22.38;;;10.85;;
20036;SDS011;10179;42.640;23.312;2023-01-04T16:29:59;22.38;;;10.45;;
20036;SDS011;10179;42.640;23.312;2023-01-04T16:32:24;20.45;;;9.90;;